Time;durP1;ratioP1;P1;durP2;ratioP2;P2;SDS_P1;SDS_P2;PMS_P1;PMS_P2;Temp;Humidity;BMP_temperature;BMP_pressure;BME280_temperature;BME280_humidity;BME280_pressure;Samples;Min_cycle;Max_cycle;Signal;HPM_P1;HPM_P2
2021/12/07 00:01:56;;;;;;;26.25;15.55;;;1.80;99.90;;;;;;6187699;23;20096;-74
2021/12/07 00:04:22;;;;;;;25.45;16.35;;;1.70;99.90;;;;;;6187383;23;20056;-73
2021/12/07 00:06:48;;;;;;;27.60;17.08;;;1.70;99.90;;;;;;6161495;23;20393;-75
2021/12/07 00:09:16;;;;;;;26.35;17.70;;;1.70;99.90;;;;;;6185965;23;20107;-73
2021/12/07 00:11:43;;;;;;;40.78;20.27;;;1.60;99.90;;;;;;6187332;23;20303;-74
2021/12/07 00:14:13;;;;;;;31.85;18.25;;;1.70;99.90;;;;;;6161803;23;20017;-78
2021/12/07 00:16:43;;;;;;;33.42;19.05;;;1.70;99.90;;;;;;6189068;23;20056;-73
2021/12/07 00:19:11;;;;;;;26.63;15.90;;;1.70;99.90;;;;;;6189180;23;20013;-75
2021/12/07 00:21:37;;;;;;;25.13;14.98;;;1.60;99.90;;;;;;6163207;23;20035;-75
2021/12/07 00:24:02;;;;;;;27.70;15.63;;;1.60;99.90;;;;;;6163074;23;20059;-74
2021/12/07 00:26:28;;;;;;;23.25;14.88;;;1.50;99.90;;;;;;6163136;23;20390;-77
2021/12/07 00:28:55;;;;;;;24.15;15.02;;;1.50;99.90;;;;;;6138770;23;20017;-75
2021/12/07 00:31:27;;;;;;;21.27;13.95;;;1.50;99.90;;;;;;6189295;23;20282;-76
2021/12/07 00:34:09;;;;;;;22.63;14.48;;;1.50;99.90;;;;;;6189201;23;20020;-75
2021/12/07 00:36:44;;;;;;;18.35;12.05;;;1.40;99.90;;;;;;6188787;23;20017;-72
2021/12/07 00:39:10;;;;;;;20.65;13.95;;;1.30;99.90;;;;;;6189163;23;20028;-73
2021/12/07 00:41:36;;;;;;;20.75;12.90;;;1.40;99.90;;;;;;6188960;23;20017;-75
2021/12/07 00:44:02;;;;;;;20.05;13.93;;;1.30;99.90;;;;;;6189059;23;20164;-74
2021/12/07 00:46:29;;;;;;;17.52;11.98;;;1.30;99.90;;;;;;6163033;23;20024;-73
2021/12/07 00:48:55;;;;;;;21.65;14.10;;;1.30;99.90;;;;;;6188485;23;20021;-72
2021/12/07 00:51:21;;;;;;;21.65;13.95;;;1.30;99.90;;;;;;6162971;23;20040;-76
2021/12/07 00:53:47;;;;;;;20.75;13.23;;;1.30;99.90;;;;;;6188531;23;20106;-73
2021/12/07 00:56:12;;;;;;;20.45;13.90;;;1.40;99.90;;;;;;6163128;23;20024;-73
2021/12/07 00:58:38;;;;;;;20.65;13.60;;;1.30;99.90;;;;;;6163024;23;20021;-74
2021/12/07 01:01:14;;;;;;;20.23;13.23;;;1.30;99.90;;;;;;6188842;23;20088;-75
2021/12/07 01:03:40;;;;;;;22.05;14.30;;;1.30;99.90;;;;;;6162813;23;20021;-73
2021/12/07 01:25:01;;;;;;;24.90;14.60;;;1.40;99.90;;;;;;6188446;23;20104;-75
2021/12/07 01:27:26;;;;;;;24.73;15.13;;;1.30;99.90;;;;;;6188785;23;20060;-76
2021/12/07 01:30:05;;;;;;;22.73;14.20;;;1.40;99.90;;;;;;6188623;23;20021;-75
2021/12/07 01:37:58;;;;;;;24.02;15.07;;;1.50;99.90;;;;;;6188523;23;20056;-73
2021/12/07 01:40:53;;;;;;;25.23;15.50;;;1.50;99.90;;;;;;6188533;23;20088;-74
2021/12/07 01:43:56;;;;;;;25.65;15.88;;;1.50;99.90;;;;;;6188038;23;20021;-76
2021/12/07 01:52:22;;;;;;;25.85;16.85;;;1.50;99.90;;;;;;6119609;23;20083;-76
2021/12/07 01:57:53;;;;;;;26.67;16.30;;;1.60;99.90;;;;;;6161957;23;20024;-77
2021/12/07 02:00:22;;;;;;;27.77;16.15;;;1.60;99.90;;;;;;6188294;23;20248;-77
2021/12/07 02:02:48;;;;;;;27.25;16.05;;;1.70;99.90;;;;;;6188315;23;20013;-74
2021/12/07 02:05:13;;;;;;;26.58;13.50;;;1.60;99.90;;;;;;6188440;23;20031;-74
2021/12/07 02:07:40;;;;;;;25.90;16.33;;;1.70;99.90;;;;;;6187766;23;20017;-74
2021/12/07 02:10:13;;;;;;;34.75;18.20;;;1.70;99.90;;;;;;6162436;23;20096;-75
2021/12/07 02:12:44;;;;;;;28.80;17.13;;;1.70;99.90;;;;;;6162309;23;20025;-73
2021/12/07 02:15:16;;;;;;;34.72;17.92;;;1.70;99.90;;;;;;6188263;23;20032;-75
2021/12/07 02:17:43;;;;;;;29.45;17.00;;;1.70;99.90;;;;;;6188150;23;20013;-72
2021/12/07 02:20:10;;;;;;;32.65;18.25;;;1.80;99.90;;;;;;6187676;23;20017;-75
2021/12/07 02:22:35;;;;;;;34.83;18.52;;;1.70;99.90;;;;;;6161411;23;20115;-72
2021/12/07 02:25:03;;;;;;;35.75;18.75;;;1.90;99.90;;;;;;6188075;23;20013;-75
2021/12/07 02:27:29;;;;;;;33.72;18.25;;;1.90;99.90;;;;;;6187532;23;20024;-73
2021/12/07 02:29:55;;;;;;;30.63;18.13;;;1.90;99.90;;;;;;6162219;23;20017;-76
2021/12/07 02:32:20;;;;;;;29.40;16.98;;;1.90;99.90;;;;;;6187682;23;20020;-76
2021/12/07 02:34:54;;;;;;;29.27;16.67;;;1.80;99.90;;;;;;6187985;23;20029;-75
2021/12/07 02:37:25;;;;;;;34.55;18.10;;;1.90;99.90;;;;;;6187619;23;20408;-75
2021/12/07 02:39:51;;;;;;;30.60;16.85;;;1.90;99.90;;;;;;6187888;23;20071;-78
2021/12/07 02:42:17;;;;;;;34.50;19.35;;;1.90;99.90;;;;;;6162132;23;20032;-73
2021/12/07 02:44:43;;;;;;;31.13;18.55;;;1.80;99.90;;;;;;6187839;23;20018;-76
2021/12/07 02:47:09;;;;;;;29.42;17.30;;;1.80;99.90;;;;;;6187819;23;20100;-74
2021/12/07 02:49:35;;;;;;;32.00;17.05;;;1.80;99.90;;;;;;6187777;23;20017;-73
2021/12/07 02:52:02;;;;;;;31.67;17.27;;;1.90;99.90;;;;;;6187568;23;20100;-77
2021/12/07 02:54:28;;;;;;;31.65;16.90;;;1.80;99.90;;;;;;6187998;23;20025;-76
2021/12/07 02:56:54;;;;;;;35.60;17.23;;;1.90;99.90;;;;;;6187618;23;20013;-75
2021/12/07 02:59:21;;;;;;;32.30;16.33;;;1.90;99.90;;;;;;6187694;23;20021;-73
2021/12/07 03:01:55;;;;;;;27.27;15.38;;;1.80;99.90;;;;;;6187660;23;20017;-77
2021/12/07 03:04:26;;;;;;;34.47;16.90;;;1.90;99.90;;;;;;6187752;23;20013;-75
2021/12/07 03:07:04;;;;;;;30.35;16.30;;;2.10;99.90;;;;;;6187345;23;20368;-76
2021/12/07 03:26:00;;;;;;;40.53;18.98;;;2.30;99.90;;;;;;6161055;23;20025;-73
2021/12/07 03:28:26;;;;;;;42.42;19.00;;;2.30;99.90;;;;;;6161905;23;20017;-75
2021/12/07 03:30:52;;;;;;;41.55;18.20;;;2.30;99.90;;;;;;6187527;23;20017;-73
2021/12/07 03:33:19;;;;;;;29.38;15.57;;;2.30;99.90;;;;;;6186345;23;20095;-74
2021/12/07 03:35:45;;;;;;;32.88;15.70;;;2.30;99.90;;;;;;6161306;23;20020;-75
2021/12/07 03:38:11;;;;;;;28.13;15.80;;;2.30;99.90;;;;;;6187375;23;20436;-75
2021/12/07 03:40:38;;;;;;;29.80;15.18;;;2.30;99.90;;;;;;6187248;23;20031;-74
2021/12/07 03:43:05;;;;;;;30.73;14.65;;;2.30;99.90;;;;;;6187902;23;20009;-73
2021/12/07 03:45:32;;;;;;;32.20;14.75;;;2.40;99.90;;;;;;6161514;23;20068;-73
2021/12/07 03:47:59;;;;;;;27.63;12.65;;;2.50;99.90;;;;;;6187419;23;20039;-72
2021/12/07 03:50:25;;;;;;;30.02;13.98;;;2.50;99.90;;;;;;6189088;23;20143;-76
2021/12/07 03:52:52;;;;;;;26.40;13.23;;;2.40;99.90;;;;;;6190299;23;20406;-73
2021/12/07 03:55:19;;;;;;;25.88;12.52;;;2.50;99.90;;;;;;6189686;23;20287;-72
2021/12/07 03:57:44;;;;;;;28.88;14.05;;;2.50;99.90;;;;;;6189049;23;20076;-74
2021/12/07 04:00:14;;;;;;;26.40;12.65;;;2.40;99.90;;;;;;6189558;23;20052;-74
2021/12/07 04:02:41;;;;;;;33.22;12.90;;;2.50;99.90;;;;;;6189299;23;20021;-75
2021/12/07 04:05:18;;;;;;;25.00;11.63;;;2.60;99.90;;;;;;6163169;23;20448;-73
2021/12/07 04:07:45;;;;;;;21.98;11.15;;;2.60;99.90;;;;;;6189598;23;20156;-73
2021/12/07 04:10:14;;;;;;;22.17;10.50;;;2.60;99.90;;;;;;6189423;23;20080;-75
2021/12/07 04:12:40;;;;;;;25.63;10.70;;;2.50;99.90;;;;;;6189351;23;20395;-73
2021/12/07 04:15:09;;;;;;;22.83;10.02;;;2.50;99.90;;;;;;6189395;23;20043;-74
2021/12/07 04:17:35;;;;;;;20.63;8.68;;;2.50;99.90;;;;;;6188934;23;20017;-73
2021/12/07 04:20:01;;;;;;;18.77;6.80;;;2.50;99.90;;;;;;6189088;23;20017;-75
2021/12/07 04:22:27;;;;;;;20.05;8.23;;;2.60;99.90;;;;;;6163002;23;20020;-73
2021/12/07 04:24:52;;;;;;;16.42;6.00;;;2.50;99.90;;;;;;6189133;23;20017;-72
2021/12/07 04:27:18;;;;;;;25.73;7.68;;;2.70;99.90;;;;;;6189409;23;20106;-75
2021/12/07 04:29:45;;;;;;;21.75;6.00;;;2.80;99.90;;;;;;6189160;23;20096;-75
2021/12/07 04:32:11;;;;;;;19.88;6.20;;;2.80;99.90;;;;;;6188874;23;20096;-77
2021/12/07 04:34:37;;;;;;;22.65;5.43;;;2.90;99.90;;;;;;6189322;23;20028;-72
2021/12/07 04:37:03;;;;;;;15.05;6.03;;;2.90;99.90;;;;;;6163251;23;20017;-74
2021/12/07 04:39:28;;;;;;;12.93;4.75;;;2.80;99.90;;;;;;6188866;23;20042;-74
2021/12/07 04:41:54;;;;;;;14.02;5.30;;;2.80;99.90;;;;;;6189050;23;20018;-73
2021/12/07 04:44:22;;;;;;;19.98;5.47;;;2.80;99.90;;;;;;6188911;23;20040;-73
2021/12/07 04:49:47;;;;;;;18.45;6.28;;;2.80;99.90;;;;;;6189084;23;20025;-74
2021/12/07 05:00:17;;;;;;;13.95;3.83;;;2.90;99.90;;;;;;6188773;23;20025;-75
2021/12/07 05:02:46;;;;;;;15.40;3.97;;;2.90;99.90;;;;;;6162621;23;20083;-73
2021/12/07 05:05:16;;;;;;;14.05;3.00;;;2.90;99.90;;;;;;6188868;23;20023;-74
2021/12/07 05:07:47;;;;;;;13.90;3.25;;;3.10;99.90;;;;;;6188446;23;20028;-75
2021/12/07 05:10:24;;;;;;;12.93;2.97;;;3.20;99.90;;;;;;6162434;23;20021;-75
2021/12/07 05:13:09;;;;;;;13.55;3.65;;;3.30;99.90;;;;;;6188725;23;20020;-74
2021/12/07 05:18:35;;;;;;;20.63;3.78;;;3.30;99.90;;;;;;6188808;23;20021;-75
2021/12/07 05:24:03;;;;;;;12.20;3.15;;;3.30;99.90;;;;;;6162713;23;20044;-74
2021/12/07 05:39:56;;;;;;;14.48;3.70;;;3.20;99.90;;;;;;6188353;23;20032;-74
2021/12/07 05:42:24;;;;;;;22.25;4.28;;;3.20;99.90;;;;;;6187955;23;20009;-74
2021/12/07 05:44:54;;;;;;;15.65;3.50;;;3.20;99.90;;;;;;6188147;23;20028;-74
2021/12/07 05:47:20;;;;;;;18.17;4.40;;;3.20;99.90;;;;;;6187785;23;20024;-74
2021/12/07 05:49:46;;;;;;;17.63;3.47;;;3.20;99.90;;;;;;6187910;23;20417;-72
2021/12/07 05:52:11;;;;;;;17.38;3.72;;;3.20;99.90;;;;;;6188381;23;20088;-73
2021/12/07 05:54:37;;;;;;;21.60;4.25;;;3.20;99.90;;;;;;6188211;23;20128;-72
2021/12/07 05:57:03;;;;;;;13.93;3.20;;;3.20;99.90;;;;;;6188438;23;20082;-74
2021/12/07 05:59:29;;;;;;;16.80;4.30;;;3.10;99.90;;;;;;6188182;23;20048;-74
2021/12/07 06:01:55;;;;;;;35.22;5.18;;;3.00;99.90;;;;;;6188049;23;20021;-75
2021/12/07 06:04:20;;;;;;;19.52;4.68;;;3.00;99.90;;;;;;6188364;23;20021;-75
2021/12/07 06:06:46;;;;;;;17.05;5.00;;;2.90;99.90;;;;;;6188135;23;20016;-72
2021/12/07 06:09:11;;;;;;;10.30;3.72;;;3.00;99.90;;;;;;6188085;23;20017;-74
2021/12/07 06:11:37;;;;;;;12.48;3.58;;;3.00;99.90;;;;;;6162029;23;20032;-72
2021/12/07 06:14:03;;;;;;;16.50;3.70;;;2.90;99.90;;;;;;6187849;23;20009;-73
2021/12/07 06:16:30;;;;;;;16.85;4.03;;;2.90;99.90;;;;;;6187830;23;20017;-73
2021/12/07 06:18:57;;;;;;;15.45;3.55;;;2.90;99.90;;;;;;6162440;23;20017;-73
2021/12/07 06:21:25;;;;;;;16.90;4.28;;;2.80;99.90;;;;;;6188006;23;20017;-73
2021/12/07 06:23:51;;;;;;;12.68;3.40;;;2.90;99.90;;;;;;6161766;23;20036;-73
2021/12/07 06:26:17;;;;;;;17.73;4.13;;;2.90;99.90;;;;;;6161925;23;20025;-70
2021/12/07 06:28:43;;;;;;;14.43;3.42;;;2.90;99.90;;;;;;6161882;23;20048;-71
2021/12/07 06:31:08;;;;;;;15.65;3.63;;;2.80;99.90;;;;;;6187130;23;20024;-71
2021/12/07 06:33:34;;;;;;;20.13;3.47;;;2.70;99.90;;;;;;6188009;23;20457;-71
2021/12/07 06:36:02;;;;;;;21.10;3.95;;;2.70;99.90;;;;;;6187906;23;20019;-70
2021/12/07 06:38:30;;;;;;;25.42;4.60;;;2.70;99.90;;;;;;6188064;23;20009;-72
2021/12/07 06:40:57;;;;;;;18.33;4.35;;;2.70;99.90;;;;;;6161518;23;20096;-72
2021/12/07 06:43:23;;;;;;;17.80;5.32;;;2.70;99.90;;;;;;6187939;23;20078;-71
2021/12/07 06:45:49;;;;;;;18.90;5.35;;;2.70;99.90;;;;;;6187387;23;20072;-73
2021/12/07 06:48:15;;;;;;;26.25;6.75;;;2.70;99.90;;;;;;6187582;23;20068;-73
2021/12/07 06:50:41;;;;;;;19.42;5.88;;;2.70;99.90;;;;;;6161955;23;20079;-73
2021/12/07 06:53:06;;;;;;;27.13;6.53;;;2.80;99.90;;;;;;6187651;23;20028;-72
2021/12/07 06:55:32;;;;;;;19.52;6.57;;;2.80;99.90;;;;;;6187528;23;20014;-72
2021/12/07 06:57:58;;;;;;;23.40;7.03;;;2.70;99.90;;;;;;6187861;23;20016;-73
2021/12/07 07:00:24;;;;;;;25.42;8.60;;;2.70;99.90;;;;;;6160906;23;20079;-72
2021/12/07 07:02:49;;;;;;;21.27;6.18;;;2.70;99.90;;;;;;6187698;23;20096;-72
2021/12/07 07:05:16;;;;;;;20.60;5.68;;;2.80;99.90;;;;;;6187501;23;20036;-72
2021/12/07 07:07:42;;;;;;;20.67;5.72;;;2.80;99.90;;;;;;6187162;23;20478;-72
2021/12/07 07:10:10;;;;;;;15.85;6.80;;;2.80;99.90;;;;;;6187356;23;20017;-71
2021/12/07 07:12:36;;;;;;;23.63;7.03;;;2.90;99.90;;;;;;6187622;23;20049;-73
2021/12/07 07:15:03;;;;;;;19.17;6.32;;;2.90;99.90;;;;;;6136660;23;20025;-72
2021/12/07 07:17:28;;;;;;;51.85;7.47;;;3.00;99.90;;;;;;6187469;23;20029;-74
2021/12/07 07:19:54;;;;;;;15.00;4.97;;;3.00;99.90;;;;;;6187496;23;20148;-72
2021/12/07 07:22:20;;;;;;;17.23;4.30;;;3.20;99.90;;;;;;6187023;23;20431;-73
2021/12/07 07:24:45;;;;;;;20.33;4.90;;;3.30;99.90;;;;;;6187521;23;20017;-72
2021/12/07 07:27:11;;;;;;;23.15;4.97;;;3.30;99.90;;;;;;6187310;23;20013;-73
2021/12/07 07:29:37;;;;;;;15.63;4.10;;;3.40;99.90;;;;;;6187081;23;20028;-72
2021/12/07 07:32:03;;;;;;;28.85;4.90;;;3.50;99.90;;;;;;6187437;23;20025;-71
2021/12/07 07:34:28;;;;;;;17.60;4.35;;;3.60;99.90;;;;;;6161463;23;20468;-72
2021/12/07 07:36:54;;;;;;;19.00;4.05;;;3.60;99.90;;;;;;6187336;23;20017;-74
2021/12/07 07:39:20;;;;;;;21.00;4.13;;;3.60;99.90;;;;;;6187425;23;20021;-72
2021/12/07 07:41:45;;;;;;;27.67;5.07;;;3.60;99.90;;;;;;6187313;23;20096;-73
2021/12/07 07:44:11;;;;;;;20.13;4.85;;;3.60;99.90;;;;;;6187433;23;20017;-72
2021/12/07 07:46:37;;;;;;;16.13;4.80;;;3.70;99.90;;;;;;6187328;23;20025;-73
2021/12/07 07:49:04;;;;;;;20.10;4.03;;;3.50;99.90;;;;;;6187190;23;20024;-72
2021/12/07 07:51:31;;;;;;;19.20;5.95;;;3.60;99.90;;;;;;6187166;23;20013;-73
2021/12/07 07:53:58;;;;;;;20.02;4.65;;;3.50;99.90;;;;;;6187134;23;20556;-74
2021/12/07 07:56:23;;;;;;;17.83;4.45;;;3.50;99.90;;;;;;6187368;23;20017;-71
2021/12/07 07:58:49;;;;;;;20.70;5.45;;;3.50;99.90;;;;;;6187060;23;20017;-72
2021/12/07 08:01:14;;;;;;;23.08;4.88;;;3.40;99.90;;;;;;6187620;23;20021;-73
2021/12/07 08:03:40;;;;;;;16.73;5.00;;;3.40;99.90;;;;;;6187677;23;20106;-71
2021/12/07 08:06:06;;;;;;;21.15;5.22;;;3.40;99.90;;;;;;6186841;23;20021;-71
2021/12/07 08:08:31;;;;;;;17.83;5.00;;;3.40;99.90;;;;;;6187253;23;20028;-72
2021/12/07 08:10:57;;;;;;;23.52;5.40;;;3.30;99.90;;;;;;6187233;23;20417;-72
2021/12/07 08:13:22;;;;;;;16.05;4.60;;;3.30;99.90;;;;;;6186934;23;20044;-73
2021/12/07 08:15:49;;;;;;;22.42;4.85;;;3.20;99.90;;;;;;6187332;23;20017;-73
2021/12/07 08:18:16;;;;;;;23.02;5.90;;;3.20;99.90;;;;;;6187060;23;20017;-72
2021/12/07 08:20:43;;;;;;;18.73;4.50;;;3.20;99.90;;;;;;6187512;23;20352;-72
2021/12/07 08:23:09;;;;;;;15.65;4.30;;;3.10;99.90;;;;;;6187211;23;20092;-72
2021/12/07 08:25:39;;;;;;;16.52;5.35;;;3.20;99.90;;;;;;6160765;23;20040;-72
2021/12/07 08:28:07;;;;;;;15.82;4.25;;;3.20;99.90;;;;;;6186569;23;20017;-70
2021/12/07 08:30:34;;;;;;;16.02;4.65;;;3.20;99.90;;;;;;6187596;23;20333;-72
2021/12/07 08:32:59;;;;;;;17.50;5.22;;;3.20;99.90;;;;;;6187323;23;20028;-72
2021/12/07 08:35:25;;;;;;;16.55;4.53;;;3.20;99.90;;;;;;6188481;23;20009;-73
2021/12/07 08:37:51;;;;;;;14.55;4.43;;;3.10;99.90;;;;;;6188951;23;20092;-73
2021/12/07 08:40:21;;;;;;;22.65;5.35;;;3.20;99.90;;;;;;6189065;23;20060;-71
2021/12/07 08:42:48;;;;;;;15.63;4.95;;;3.20;99.90;;;;;;6162592;23;20017;-73
2021/12/07 08:45:13;;;;;;;17.30;5.55;;;3.20;99.90;;;;;;6189146;23;20321;-71
2021/12/07 08:47:39;;;;;;;14.60;5.15;;;3.20;99.90;;;;;;6188852;23;20016;-72
2021/12/07 08:50:08;;;;;;;15.57;4.60;;;3.30;99.90;;;;;;6188816;23;20013;-73
2021/12/07 08:52:34;;;;;;;17.25;5.18;;;3.10;99.90;;;;;;6188930;23;20129;-71
2021/12/07 09:00:28;;;;;;;12.57;5.28;;;3.20;99.90;;;;;;6188608;23;20029;-70
2021/12/07 09:02:54;;;;;;;11.52;4.93;;;3.20;99.90;;;;;;6188904;23;20036;-71
2021/12/07 09:05:19;;;;;;;14.95;5.30;;;3.30;99.90;;;;;;6188489;23;20025;-73
2021/12/07 09:07:46;;;;;;;17.30;5.75;;;3.30;99.90;;;;;;6162633;23;20024;-70
2021/12/07 09:10:12;;;;;;;10.95;5.35;;;3.30;99.90;;;;;;6163004;23;20025;-72
2021/12/07 09:12:38;;;;;;;29.85;6.45;;;3.30;99.90;;;;;;6188609;23;20017;-72
2021/12/07 09:15:04;;;;;;;16.42;5.88;;;3.40;99.90;;;;;;6189073;23;20071;-74
2021/12/07 09:17:30;;;;;;;25.10;5.78;;;3.30;99.90;;;;;;6188364;23;20021;-73
2021/12/07 09:19:56;;;;;;;22.88;6.50;;;3.40;99.90;;;;;;6162332;23;20017;-72
2021/12/07 09:22:21;;;;;;;21.42;7.55;;;3.50;99.90;;;;;;6188547;23;20013;-72
2021/12/07 09:24:47;;;;;;;23.08;7.47;;;3.60;99.90;;;;;;6188517;23;20320;-71
2021/12/07 09:27:13;;;;;;;23.98;8.13;;;3.60;99.90;;;;;;6188720;23;20048;-72
2021/12/07 09:29:38;;;;;;;28.67;7.50;;;3.70;99.90;;;;;;6162632;23;20013;-73
2021/12/07 09:32:04;;;;;;;19.13;6.25;;;3.70;99.90;;;;;;6188552;23;20095;-73
2021/12/07 09:34:31;;;;;;;51.40;7.10;;;3.60;99.90;;;;;;6188141;23;20101;-72
2021/12/07 09:36:56;;;;;;;19.27;6.22;;;3.80;99.90;;;;;;6188434;23;20063;-72
2021/12/07 09:39:22;;;;;;;22.27;6.53;;;3.80;99.90;;;;;;6188604;23;20020;-72
2021/12/07 09:41:48;;;;;;;22.50;5.80;;;3.80;99.90;;;;;;6187996;23;20032;-71
2021/12/07 09:44:14;;;;;;;18.45;6.40;;;3.90;99.90;;;;;;6188028;23;20025;-72
2021/12/07 09:46:41;;;;;;;20.02;6.60;;;3.90;99.90;;;;;;6161397;23;20067;-72
2021/12/07 09:49:09;;;;;;;19.13;6.93;;;4.00;99.90;;;;;;6188200;23;20017;-71
2021/12/07 09:51:36;;;;;;;18.88;6.30;;;4.10;99.90;;;;;;6162220;23;20032;-73
2021/12/07 09:54:04;;;;;;;17.77;6.78;;;4.20;99.90;;;;;;6188600;23;20021;-74
2021/12/07 09:56:30;;;;;;;21.67;7.40;;;4.30;99.90;;;;;;6188978;23;20013;-73
2021/12/07 09:58:59;;;;;;;22.73;8.23;;;4.40;99.90;;;;;;6162784;23;20427;-71
2021/12/07 10:01:27;;;;;;;20.55;7.10;;;4.40;99.90;;;;;;6162228;23;20476;-71
2021/12/07 10:03:53;;;;;;;14.32;6.45;;;4.50;99.90;;;;;;6187886;23;20389;-71
2021/12/07 10:06:21;;;;;;;15.20;6.15;;;4.50;99.90;;;;;;6188011;23;20049;-72
2021/12/07 10:08:48;;;;;;;23.13;6.85;;;4.60;99.90;;;;;;6188041;23;20016;-74
2021/12/07 10:11:15;;;;;;;21.08;7.22;;;4.70;99.90;;;;;;6188206;23;20344;-72
2021/12/07 10:13:43;;;;;;;13.88;6.53;;;4.70;99.90;;;;;;6188142;23;20029;-71
2021/12/07 10:16:11;;;;;;;16.27;6.55;;;4.80;99.90;;;;;;6188188;23;20025;-70
2021/12/07 10:18:39;;;;;;;18.27;7.07;;;4.80;99.90;;;;;;6187830;23;20020;-73
2021/12/07 10:21:13;;;;;;;20.17;6.65;;;4.80;99.90;;;;;;6188018;23;20316;-72
2021/12/07 10:23:54;;;;;;;14.00;5.60;;;4.80;99.90;;;;;;6188032;23;20021;-71
2021/12/07 10:26:32;;;;;;;18.75;6.10;;;4.90;99.90;;;;;;6187921;23;20013;-72
2021/12/07 10:29:08;;;;;;;20.25;7.63;;;4.90;99.90;;;;;;6187351;23;20070;-74
2021/12/07 10:31:37;;;;;;;23.17;7.32;;;5.00;99.90;;;;;;6187452;23;20287;-77
2021/12/07 10:34:17;;;;;;;19.73;6.07;;;5.00;99.90;;;;;;6162280;23;20394;-76
2021/12/07 10:36:46;;;;;;;25.92;7.35;;;5.10;99.90;;;;;;6188033;23;20013;-73
2021/12/07 10:39:16;;;;;;;23.23;7.38;;;5.00;99.90;;;;;;6187087;23;20397;-74
2021/12/07 10:41:46;;;;;;;19.95;6.80;;;5.00;99.90;;;;;;6187964;23;20086;-73
2021/12/07 10:44:18;;;;;;;14.15;6.13;;;5.00;99.90;;;;;;6187938;23;20075;-74
2021/12/07 10:46:52;;;;;;;14.52;5.90;;;5.10;99.90;;;;;;6187742;23;20031;-73
2021/12/07 10:49:29;;;;;;;19.70;6.55;;;5.10;99.90;;;;;;6162094;23;20021;-72
2021/12/07 10:52:06;;;;;;;14.15;6.22;;;5.20;99.90;;;;;;6187585;23;20025;-73
2021/12/07 10:54:36;;;;;;;17.30;5.80;;;5.20;99.90;;;;;;6187780;23;20049;-72
2021/12/07 10:57:03;;;;;;;19.15;6.10;;;5.30;99.90;;;;;;6188147;23;20491;-71
2021/12/07 10:59:30;;;;;;;14.68;5.93;;;5.40;99.90;;;;;;6187715;23;20044;-73
2021/12/07 11:01:56;;;;;;;25.88;7.05;;;5.50;99.90;;;;;;6161727;23;20091;-71
2021/12/07 11:04:27;;;;;;;17.73;6.65;;;5.50;99.90;;;;;;6187247;23;20088;-71
2021/12/07 11:07:09;;;;;;;22.88;5.35;;;5.60;99.90;;;;;;6187501;23;20028;-72
2021/12/07 11:09:46;;;;;;;16.92;5.50;;;5.80;99.90;;;;;;6162065;23;20349;-70
2021/12/07 11:12:15;;;;;;;16.38;6.07;;;5.80;99.90;;;;;;6161183;23;20389;-71
2021/12/07 11:14:56;;;;;;;17.80;5.32;;;5.90;99.90;;;;;;6161261;23;20375;-71
2021/12/07 11:17:29;;;;;;;11.80;4.22;;;6.00;99.90;;;;;;6161719;23;20029;-74
2021/12/07 11:19:55;;;;;;;19.27;5.85;;;6.10;99.90;;;;;;6187580;23;20013;-74
2021/12/07 11:22:25;;;;;;;16.05;4.85;;;6.00;99.90;;;;;;6187129;23;20286;-74
2021/12/07 11:24:52;;;;;;;24.77;4.90;;;6.10;99.90;;;;;;6187620;23;20044;-72
2021/12/07 11:30:13;;;;;;;14.73;5.80;;;6.00;99.90;;;;;;6187363;23;20036;-71
2021/12/07 11:32:54;;;;;;;19.50;5.53;;;5.90;99.90;;;;;;6161551;23;20052;-74
2021/12/07 11:35:27;;;;;;;20.65;5.60;;;5.80;99.90;;;;;;6187508;23;20049;-71
2021/12/07 11:37:55;;;;;;;24.58;6.28;;;5.90;99.90;;;;;;6187348;23;20365;-73
2021/12/07 11:40:32;;;;;;;17.08;5.68;;;5.90;99.90;;;;;;6161409;23;20021;-72
2021/12/07 11:42:58;;;;;;;19.92;5.85;;;5.90;99.90;;;;;;6187557;23;20073;-70
2021/12/07 11:45:33;;;;;;;23.45;6.55;;;6.00;99.90;;;;;;6161662;23;20051;-71
2021/12/07 11:48:05;;;;;;;17.60;6.35;;;6.10;99.90;;;;;;6186832;23;20408;-74
2021/12/07 11:50:32;;;;;;;19.92;6.35;;;6.10;99.90;;;;;;6161679;23;20306;-73
2021/12/07 11:53:02;;;;;;;17.90;6.00;;;6.20;99.90;;;;;;6160968;23;20080;-72
2021/12/07 11:55:29;;;;;;;18.05;5.00;;;6.10;99.90;;;;;;6187573;23;20048;-72
2021/12/07 11:57:55;;;;;;;16.77;6.13;;;6.20;99.90;;;;;;6187418;23;20013;-72
2021/12/07 12:00:26;;;;;;;27.38;5.82;;;6.20;99.90;;;;;;6187058;23;20366;-70
2021/12/07 12:02:52;;;;;;;13.65;4.43;;;6.20;99.90;;;;;;6186954;23;20023;-70
2021/12/07 12:05:19;;;;;;;12.15;4.60;;;6.20;99.90;;;;;;6187411;23;20017;-69
2021/12/07 12:07:48;;;;;;;20.63;5.88;;;6.30;99.90;;;;;;6161544;23;20031;-74
2021/12/07 12:10:15;;;;;;;11.77;5.80;;;6.30;99.90;;;;;;6188220;23;20301;-74
2021/12/07 12:13:25;;;;;;;15.38;5.10;;;6.30;99.90;;;;;;6189465;23;20026;-71
2021/12/07 12:16:07;;;;;;;11.90;4.28;;;6.30;99.90;;;;;;6188998;23;20314;-72
2021/12/07 12:18:51;;;;;;;16.48;4.68;;;6.40;99.90;;;;;;6189368;23;20025;-73
2021/12/07 12:21:33;;;;;;;19.88;4.07;;;6.30;99.90;;;;;;6189412;23;20208;-70
2021/12/07 12:24:29;;;;;;;18.30;4.32;;;6.30;99.90;;;;;;6163172;23;20138;-69
2021/12/07 12:27:10;;;;;;;14.02;5.40;;;6.40;99.90;;;;;;6163123;23;20017;-71
2021/12/07 12:29:37;;;;;;;16.98;6.30;;;6.40;99.90;;;;;;6189197;23;20028;-71
2021/12/07 12:32:04;;;;;;;19.67;6.15;;;6.40;99.90;;;;;;6188946;23;20029;-72
2021/12/07 12:34:37;;;;;;;17.65;6.60;;;6.40;99.90;;;;;;6189320;23;20009;-71
2021/12/07 12:37:25;;;;;;;21.13;7.50;;;6.40;99.90;;;;;;6189037;23;20371;-71
2021/12/07 12:39:58;;;;;;;18.88;6.05;;;6.40;99.90;;;;;;6112850;23;20019;-72
2021/12/07 12:42:28;;;;;;;22.80;7.05;;;6.50;99.90;;;;;;6188851;23;20021;-72
2021/12/07 12:45:03;;;;;;;19.45;6.75;;;6.50;99.90;;;;;;6188923;23;20056;-70
2021/12/07 12:47:31;;;;;;;15.15;5.45;;;6.50;99.90;;;;;;6188849;23;20031;-71
2021/12/07 12:50:17;;;;;;;15.20;6.93;;;6.50;99.90;;;;;;6189001;23;20017;-71
2021/12/07 12:53:00;;;;;;;15.07;6.43;;;6.50;99.90;;;;;;6188675;23;20017;-71
2021/12/07 12:55:38;;;;;;;14.00;6.07;;;6.40;99.90;;;;;;6188948;23;20024;-70
2021/12/07 12:58:08;;;;;;;20.92;5.97;;;6.30;99.90;;;;;;6162924;23;20071;-71
2021/12/07 13:01:14;;;;;;;22.90;6.28;;;6.30;99.90;;;;;;6112696;23;20017;-70
2021/12/07 13:03:55;;;;;;;17.38;5.97;;;6.20;99.90;;;;;;6189001;23;20020;-70
2021/12/07 13:06:33;;;;;;;19.17;5.88;;;6.20;99.90;;;;;;6188699;23;20017;-72
2021/12/07 13:09:02;;;;;;;20.15;5.63;;;6.20;99.90;;;;;;6188667;23;20017;-73
2021/12/07 13:11:42;;;;;;;16.83;4.55;;;6.10;99.90;;;;;;6188723;23;20352;-70
2021/12/07 13:14:28;;;;;;;18.42;5.55;;;6.10;99.90;;;;;;6162878;23;20087;-70
2021/12/07 13:16:59;;;;;;;14.70;6.28;;;6.10;99.90;;;;;;6188246;23;20048;-72
2021/12/07 13:19:28;;;;;;;17.52;5.60;;;6.00;99.90;;;;;;6188738;23;20047;-70
2021/12/07 13:22:03;;;;;;;23.27;6.47;;;6.00;99.90;;;;;;6188651;23;20017;-70
2021/12/07 13:24:38;;;;;;;13.63;4.65;;;6.00;99.90;;;;;;6188586;23;20428;-70
2021/12/07 13:27:11;;;;;;;17.50;5.38;;;5.90;99.90;;;;;;6162609;23;20017;-71
2021/12/07 13:29:43;;;;;;;26.83;7.03;;;5.90;99.90;;;;;;6162659;23;20290;-70
2021/12/07 13:32:10;;;;;;;19.75;5.97;;;6.00;99.90;;;;;;6188570;23;20344;-70
2021/12/07 13:34:37;;;;;;;20.83;5.60;;;5.90;99.90;;;;;;6187810;23;20412;-70
2021/12/07 13:37:09;;;;;;;21.23;6.32;;;5.90;99.90;;;;;;6188689;23;20024;-71
2021/12/07 13:39:36;;;;;;;17.65;5.68;;;6.00;99.90;;;;;;6188397;23;20432;-71
2021/12/07 13:42:16;;;;;;;26.05;7.10;;;6.00;99.90;;;;;;6187969;23;20417;-71
2021/12/07 13:45:05;;;;;;;15.55;7.10;;;5.90;99.90;;;;;;6188534;23;20429;-73
2021/12/07 13:47:37;;;;;;;20.60;7.47;;;6.00;99.90;;;;;;6162521;23;20024;-72
2021/12/07 13:50:15;;;;;;;22.20;7.78;;;6.00;99.90;;;;;;6162409;23;20025;-71
2021/12/07 13:52:47;;;;;;;21.70;7.43;;;5.90;99.90;;;;;;6188232;23;20013;-72
2021/12/07 13:55:16;;;;;;;20.00;7.20;;;5.90;99.90;;;;;;6188190;23;20044;-71
2021/12/07 13:57:43;;;;;;;14.68;6.30;;;5.90;99.90;;;;;;6188264;23;20099;-70
2021/12/07 14:00:16;;;;;;;21.08;7.70;;;5.80;99.90;;;;;;6187911;23;20425;-70
2021/12/07 14:02:46;;;;;;;17.00;7.20;;;5.80;99.90;;;;;;6187948;23;20476;-70
2021/12/07 14:05:18;;;;;;;18.92;7.60;;;5.80;99.90;;;;;;6162123;23;20056;-70
2021/12/07 14:07:45;;;;;;;16.85;6.07;;;5.70;99.90;;;;;;6188141;23;20024;-71
2021/12/07 14:10:11;;;;;;;17.83;6.55;;;5.70;99.90;;;;;;6187938;23;20424;-72
2021/12/07 14:12:37;;;;;;;19.58;6.40;;;5.70;99.90;;;;;;6188444;23;20035;-73
2021/12/07 14:15:08;;;;;;;25.40;7.18;;;5.60;99.90;;;;;;6188113;23;20040;-72
2021/12/07 14:17:43;;;;;;;15.95;6.53;;;5.60;99.90;;;;;;6188325;23;20021;-71
2021/12/07 14:20:09;;;;;;;;;;;5.50;99.90;;;;;;6188639;23;20017;-71
2021/12/07 14:22:35;;;;;;;13.23;6.47;;;5.50;99.90;;;;;;6188060;23;19952;-71
2021/12/07 14:25:00;;;;;;;26.58;7.57;;;5.40;99.90;;;;;;6188094;23;20024;-71